createdAt,value
2023-04-14T00:01:55.735Z,94265.94
2023-04-14T00:04:23.685Z,94264.97
2023-04-14T00:06:52.661Z,94259.38
2023-04-14T00:09:20.591Z,94265.25
2023-04-14T00:11:49.414Z,94260.09
2023-04-14T00:14:17.353Z,94262.28
2023-04-14T00:16:46.241Z,94252.94
2023-04-14T00:19:15.911Z,94256.06
2023-04-14T00:21:43.681Z,94252.25
2023-04-14T00:24:11.483Z,94255.50
2023-04-14T00:26:39.360Z,94257.41
2023-04-14T00:29:07.193Z,94257.09
2023-04-14T00:31:35.397Z,94245.38
2023-04-14T00:34:03.276Z,94247.03
2023-04-14T00:36:33.192Z,94240.66
2023-04-14T00:39:02.157Z,94246.16
2023-04-14T00:41:34.630Z,94244.41
2023-04-14T00:44:02.969Z,94238.13
2023-04-14T00:46:31.341Z,94235.91
2023-04-14T00:48:59.456Z,94242.97
2023-04-14T00:51:28.297Z,94250.25
2023-04-14T00:53:59.166Z,94242.75
2023-04-14T00:56:27.410Z,94236.00
2023-04-14T00:58:55.545Z,94238.72
2023-04-14T01:01:26.206Z,94242.75
2023-04-14T01:03:54.261Z,94246.88
2023-04-14T01:06:22.243Z,94235.81
2023-04-14T01:08:51.280Z,94237.47
2023-04-14T01:11:29.397Z,94239.41
2023-04-14T01:14:08.747Z,94240.34
2023-04-14T01:16:41.025Z,94243.19
2023-04-14T01:19:28.672Z,94245.13
2023-04-14T01:22:02.610Z,94249.78
2023-04-14T01:25:01.350Z,94248.16
2023-04-14T01:27:41.135Z,94250.69
2023-04-14T01:30:28.511Z,94246.13
2023-04-14T01:33:01.183Z,94257.69
2023-04-14T01:35:38.008Z,94253.59
2023-04-14T01:38:10.675Z,94254.22
2023-04-14T01:40:42.219Z,94247.22
2023-04-14T01:43:13.083Z,94255.19
2023-04-14T01:45:46.562Z,94246.00
2023-04-14T01:48:17.079Z,94239.69
2023-04-14T01:50:48.260Z,94252.13
2023-04-14T01:53:19.113Z,94248.63
2023-04-14T01:55:50.536Z,94255.19
2023-04-14T01:58:21.602Z,94257.50
2023-04-14T02:00:51.657Z,94244.69
2023-04-14T02:03:22.798Z,94247.78
2023-04-14T02:05:53.447Z,94257.25
2023-04-14T02:08:24.155Z,94250.78
2023-04-14T02:10:54.936Z,94247.69
2023-04-14T02:13:24.954Z,94238.16
2023-04-14T02:15:53.373Z,94245.94
2023-04-14T02:18:24.174Z,94246.66
2023-04-14T02:20:55.001Z,94242.28
2023-04-14T02:23:22.863Z,94245.34
2023-04-14T02:25:54.946Z,94242.50
2023-04-14T02:28:29.063Z,94242.63
2023-04-14T02:30:59.583Z,94237.63
2023-04-14T02:33:32.905Z,94240.97
2023-04-14T02:36:03.776Z,94236.94
2023-04-14T02:38:39.316Z,94239.22
2023-04-14T02:41:11.325Z,94221.56
2023-04-14T02:43:45.287Z,94226.44
2023-04-14T02:46:17.709Z,94229.00
2023-04-14T02:48:48.197Z,94219.09
2023-04-14T02:51:18.970Z,94204.19
2023-04-14T02:53:47.534Z,94200.75
2023-04-14T02:56:22.982Z,94207.25
2023-04-14T02:58:52.900Z,94202.19
2023-04-14T03:01:22.927Z,94205.31
2023-04-14T03:03:57.604Z,94205.44
2023-04-14T03:06:28.504Z,94201.94
2023-04-14T03:08:59.150Z,94210.84
2023-04-14T03:11:29.196Z,94216.34
2023-04-14T03:13:58.593Z,94220.47
2023-04-14T03:16:29.284Z,94214.69
2023-04-14T03:19:00.316Z,94217.66
2023-04-14T03:21:30.372Z,94213.53
2023-04-14T03:23:59.841Z,94207.34
2023-04-14T03:26:31.349Z,94206.38
2023-04-14T03:29:02.256Z,94198.06
2023-04-14T03:31:34.751Z,94196.97
2023-04-14T03:34:06.763Z,94196.97
2023-04-14T03:36:41.232Z,94201.22
2023-04-14T03:39:12.552Z,94200.59
2023-04-14T03:41:47.735Z,94191.75
2023-04-14T03:44:19.299Z,94183.19
2023-04-14T03:46:50.347Z,94191.31
2023-04-14T03:49:21.953Z,94183.19
2023-04-14T03:51:57.372Z,94183.03
2023-04-14T03:54:27.859Z,94180.69
2023-04-14T03:56:57.438Z,94180.19
2023-04-14T03:59:29.332Z,94184.94
2023-04-14T04:01:58.487Z,94200.47
2023-04-14T04:04:30.886Z,94203.53
2023-04-14T04:07:00.414Z,94201.16
2023-04-14T04:09:32.691Z,94210.63
2023-04-14T04:12:02.178Z,94207.59
2023-04-14T04:14:33.767Z,94209.81
2023-04-14T04:17:07.110Z,94216.16
2023-04-14T04:19:37.730Z,94203.81
2023-04-14T04:22:07.224Z,94201.72
2023-04-14T04:24:40.497Z,94200.25
2023-04-14T04:27:26.549Z,94205.81
2023-04-14T04:29:58.667Z,94191.59
2023-04-14T04:32:27.247Z,94197.28
2023-04-14T04:34:57.739Z,94196.19
2023-04-14T04:37:28.937Z,94189.72
2023-04-14T04:39:58.770Z,94191.66
2023-04-14T04:42:27.785Z,94199.53
2023-04-14T04:44:57.754Z,94199.09
2023-04-14T04:47:26.167Z,94212.75
2023-04-14T04:49:54.045Z,94213.25
2023-04-14T04:52:23.220Z,94214.50
2023-04-14T04:54:52.646Z,94218.81
2023-04-14T04:57:20.670Z,94209.44
2023-04-14T04:59:48.665Z,94219.66
2023-04-14T05:02:16.543Z,94221.31
2023-04-14T05:04:44.455Z,94222.28
2023-04-14T05:07:12.304Z,94233.94
2023-04-14T05:09:41.502Z,94238.22
2023-04-14T05:12:09.517Z,94234.56
2023-04-14T05:14:37.480Z,94240.09
2023-04-14T05:17:05.291Z,94242.63
2023-04-14T05:19:33.083Z,94243.16
2023-04-14T05:22:01.028Z,94245.03
2023-04-14T05:24:28.865Z,94244.94
2023-04-14T05:27:13.061Z,94245.03
2023-04-14T05:29:41.842Z,94236.91
2023-04-14T05:32:10.664Z,94242.50
2023-04-14T05:34:38.520Z,94242.16
2023-04-14T05:37:06.333Z,94252.81
2023-04-14T05:39:34.498Z,94252.44
2023-04-14T05:42:03.685Z,94245.16
2023-04-14T05:44:31.527Z,94232.91
2023-04-14T05:46:59.321Z,94234.19
2023-04-14T05:49:27.169Z,94228.38
2023-04-14T05:51:56.057Z,94230.56
2023-04-14T05:54:23.805Z,94224.00
2023-04-14T05:56:51.569Z,94221.56
2023-04-14T05:59:20.920Z,94217.25
2023-04-14T06:01:48.842Z,94211.16
2023-04-14T06:04:17.492Z,94205.25
2023-04-14T06:06:45.700Z,94217.06
2023-04-14T06:09:13.521Z,94219.22
2023-04-14T06:11:42.427Z,94234.47
2023-04-14T06:14:10.292Z,94234.19
2023-04-14T06:16:39.532Z,94244.53
2023-04-14T06:19:07.344Z,94232.94
2023-04-14T06:21:35.218Z,94235.69
2023-04-14T06:24:03.099Z,94248.31
2023-04-14T06:26:31.346Z,94233.63
2023-04-14T06:29:00.988Z,94232.13
2023-04-14T06:31:29.086Z,94233.53
2023-04-14T06:33:58.312Z,94229.59
2023-04-14T06:36:27.117Z,94225.53
2023-04-14T06:38:54.907Z,94234.72
2023-04-14T06:41:22.754Z,94240.28
2023-04-14T06:43:50.689Z,94236.84
2023-04-14T06:46:19.024Z,94227.66
2023-04-14T06:48:46.906Z,94230.03
2023-04-14T06:51:16.130Z,94229.44
2023-04-14T06:53:44.205Z,94235.41
2023-04-14T06:56:12.115Z,94241.09
2023-04-14T06:58:40.387Z,94237.25
2023-04-14T07:01:08.274Z,94234.34
2023-04-14T07:03:36.244Z,94228.47
2023-04-14T07:06:05.178Z,94238.22
2023-04-14T07:08:35.371Z,94230.94
2023-04-14T07:11:04.644Z,94224.41
2023-04-14T07:13:33.693Z,94223.44
2023-04-14T07:16:02.282Z,94235.97
2023-04-14T07:18:30.833Z,94224.06
2023-04-14T07:20:59.175Z,94222.31
2023-04-14T07:23:27.365Z,94217.81
2023-04-14T07:25:57.802Z,94226.38
2023-04-14T07:28:26.961Z,94225.97
2023-04-14T07:30:55.102Z,94230.53
2023-04-14T07:33:32.092Z,94237.94
2023-04-14T07:36:02.762Z,94238.59
2023-04-14T07:38:32.264Z,94229.94
2023-04-14T07:41:04.533Z,94237.97
2023-04-14T07:43:35.187Z,94240.69
2023-04-14T07:46:05.479Z,94230.34
2023-04-14T07:48:33.905Z,94242.22
2023-04-14T07:51:01.705Z,94245.31
2023-04-14T07:53:29.830Z,94245.69
2023-04-14T07:55:59.595Z,94263.38
2023-04-14T07:58:29.419Z,94269.84
2023-04-14T08:00:58.301Z,94273.84
2023-04-14T08:03:26.737Z,94271.97
2023-04-14T08:05:54.757Z,94280.56
2023-04-14T08:08:23.143Z,94276.63
2023-04-14T08:10:54.702Z,94284.81
2023-04-14T08:13:22.975Z,94288.75
2023-04-14T08:15:52.470Z,94289.44
2023-04-14T08:18:20.590Z,94289.22
2023-04-14T08:20:48.653Z,94287.69
2023-04-14T08:23:16.475Z,94291.31
2023-04-14T08:25:44.613Z,94306.69
2023-04-14T08:28:12.770Z,94312.44
2023-04-14T08:30:41.427Z,94306.88
2023-04-14T08:33:10.714Z,94312.47
2023-04-14T08:35:42.520Z,94302.25
2023-04-14T08:38:11.637Z,94309.31
2023-04-14T08:40:41.190Z,94316.81
2023-04-14T08:43:11.176Z,94299.16
2023-04-14T08:45:41.513Z,94305.38
2023-04-14T08:48:13.018Z,94307.53
2023-04-14T08:50:50.410Z,94298.47
2023-04-14T08:53:21.943Z,94308.81
2023-04-14T08:55:51.663Z,94320.69
2023-04-14T08:58:20.062Z,94304.88
2023-04-14T09:00:49.317Z,94304.00
2023-04-14T09:03:19.293Z,94313.34
2023-04-14T09:05:48.874Z,94304.50
2023-04-14T09:08:18.096Z,94310.50
2023-04-14T09:10:46.692Z,94302.28
2023-04-14T09:13:16.025Z,94288.22
2023-04-14T09:15:44.132Z,94277.31
2023-04-14T09:18:15.614Z,94292.47
2023-04-14T09:21:28.724Z,94295.13
2023-04-14T09:23:36.716Z,94293.16
2023-04-14T09:26:09.190Z,94305.13
2023-04-14T09:28:37.233Z,94306.81
2023-04-14T09:31:06.096Z,94305.22
2023-04-14T09:33:34.253Z,94302.25
2023-04-14T09:36:03.595Z,94302.59
2023-04-14T09:38:36.462Z,94289.53
2023-04-14T09:41:04.965Z,94286.03
2023-04-14T09:43:33.543Z,94289.56
2023-04-14T09:46:06.925Z,94297.41
2023-04-14T09:48:36.457Z,94282.81
2023-04-14T09:51:07.282Z,94288.81
2023-04-14T09:53:36.464Z,94316.53
2023-04-14T09:56:06.493Z,94325.28
2023-04-14T09:58:35.885Z,94323.00
2023-04-14T10:01:05.729Z,94322.06
2023-04-14T10:03:35.994Z,94326.22
2023-04-14T10:06:07.874Z,94320.78
2023-04-14T10:08:38.138Z,94329.66
2023-04-14T10:11:20.192Z,94313.91
2023-04-14T10:13:49.887Z,94320.16
2023-04-14T10:16:18.712Z,94316.22
2023-04-14T10:18:47.644Z,94307.91
2023-04-14T10:21:17.670Z,94314.38
2023-04-14T10:23:47.208Z,94312.94
2023-04-14T10:26:15.800Z,94313.56
2023-04-14T10:28:46.424Z,94320.47
2023-04-14T10:31:20.278Z,94318.34
2023-04-14T10:33:48.871Z,94314.84
2023-04-14T10:36:26.445Z,94315.25
2023-04-14T10:39:00.882Z,94323.28
2023-04-14T10:41:29.329Z,94323.47
2023-04-14T10:43:57.120Z,94314.06
2023-04-14T10:46:26.055Z,94304.06
2023-04-14T10:48:54.176Z,94307.81
2023-04-14T10:51:22.407Z,94321.34
2023-04-14T10:53:55.308Z,94313.50
2023-04-14T10:56:24.527Z,94309.75
2023-04-14T10:58:56.646Z,94307.97
2023-04-14T11:01:26.696Z,94292.69
2023-04-14T11:03:56.423Z,94295.84
2023-04-14T11:06:52.323Z,94280.63
2023-04-14T11:09:34.886Z,94281.41
2023-04-14T11:12:23.284Z,94277.09
2023-04-14T11:14:55.657Z,94268.88
2023-04-14T11:17:24.335Z,94259.66
2023-04-14T11:19:55.248Z,94250.09
2023-04-14T11:22:38.961Z,94246.34
2023-04-14T11:25:09.516Z,94263.88
2023-04-14T11:27:37.354Z,94264.94
2023-04-14T11:30:07.101Z,94251.78
2023-04-14T11:32:46.557Z,94266.19
2023-04-14T11:35:14.798Z,94268.66
2023-04-14T11:37:42.873Z,94256.00
2023-04-14T11:40:14.044Z,94271.84
2023-04-14T11:42:46.501Z,94273.56
2023-04-14T11:45:16.443Z,94267.78
2023-04-14T11:47:49.013Z,94262.13
2023-04-14T11:50:18.121Z,94256.69
2023-04-14T11:52:47.461Z,94252.69
2023-04-14T11:55:17.561Z,94247.47
2023-04-14T11:57:47.224Z,94238.94
2023-04-14T12:00:41.159Z,94235.72
2023-04-14T12:03:09.433Z,94252.84
2023-04-14T12:05:38.685Z,94256.97
2023-04-14T12:08:09.047Z,94258.38
2023-04-14T12:10:42.230Z,94262.94
2023-04-14T12:13:11.488Z,94282.63
2023-04-14T12:15:41.534Z,94249.28
2023-04-14T12:18:11.516Z,94255.75
2023-04-14T12:20:44.111Z,94255.94
2023-04-14T12:23:12.438Z,94243.91
2023-04-14T12:25:42.184Z,94232.22
2023-04-14T12:28:10.231Z,94235.25
2023-04-14T12:30:38.831Z,94223.97
2023-04-14T12:33:12.017Z,94242.72
2023-04-14T12:35:40.872Z,94221.59
2023-04-14T12:38:13.452Z,94223.78
2023-04-14T12:40:45.559Z,94213.13
2023-04-14T12:43:13.960Z,94224.06
2023-04-14T12:45:42.718Z,94218.28
2023-04-14T12:48:11.273Z,94216.91
2023-04-14T12:50:39.650Z,94211.38
2023-04-14T12:53:26.074Z,94213.22
2023-04-14T12:56:09.546Z,94213.50
2023-04-14T12:58:38.874Z,94214.25
2023-04-14T13:01:07.805Z,94211.59
2023-04-14T13:03:44.885Z,94213.03
2023-04-14T13:06:16.272Z,94220.16
2023-04-14T13:08:45.812Z,94216.09
2023-04-14T13:11:15.771Z,94206.13
2023-04-14T13:13:45.484Z,94209.91
2023-04-14T13:16:17.091Z,94214.81
2023-04-14T13:18:46.472Z,94215.66
2023-04-14T13:21:14.605Z,94218.69
2023-04-14T13:23:43.569Z,94200.75
2023-04-14T13:26:13.354Z,94199.63
2023-04-14T13:28:42.924Z,94175.00
2023-04-14T13:31:11.651Z,94160.28
2023-04-14T13:33:39.552Z,94171.97
2023-04-14T13:36:08.077Z,94157.97
2023-04-14T13:38:36.449Z,94176.22
2023-04-14T13:41:04.285Z,94178.34
2023-04-14T13:43:33.078Z,94181.69
2023-04-14T13:46:02.490Z,94166.56
2023-04-14T13:48:32.622Z,94181.09
2023-04-14T13:51:02.107Z,94180.09
2023-04-14T13:53:29.990Z,94177.03
2023-04-14T13:55:58.029Z,94175.47
2023-04-14T13:58:26.364Z,94179.00
2023-04-14T14:00:57.292Z,94184.53
2023-04-14T14:03:28.475Z,94179.00
2023-04-14T14:05:57.719Z,94182.44
2023-04-14T14:08:26.135Z,94191.47
2023-04-14T14:10:54.136Z,94182.09
2023-04-14T14:13:22.078Z,94192.59
2023-04-14T14:15:50.054Z,94188.41
2023-04-14T14:18:18.027Z,94175.16
2023-04-14T14:20:48.109Z,94185.72
2023-04-14T14:23:16.227Z,94170.94
2023-04-14T14:25:44.198Z,94181.44
2023-04-14T14:28:13.547Z,94175.78
2023-04-14T14:30:41.450Z,94176.91
2023-04-14T14:33:09.536Z,94173.03
2023-04-14T14:35:39.149Z,94178.00
2023-04-14T14:38:08.402Z,94171.50
2023-04-14T14:40:36.226Z,94171.81
2023-04-14T14:43:04.103Z,94168.06
2023-04-14T14:45:33.315Z,94170.34
2023-04-14T14:48:01.880Z,94173.88
2023-04-14T14:50:30.008Z,94175.97
2023-04-14T14:52:57.905Z,94181.41
2023-04-14T14:55:27.276Z,94178.63
2023-04-14T14:57:55.395Z,94174.06
2023-04-14T15:00:24.736Z,94178.03
2023-04-14T15:02:53.512Z,94171.66
2023-04-14T15:05:21.580Z,94180.97
2023-04-14T15:07:49.745Z,94164.00
2023-04-14T15:10:17.802Z,94172.78
2023-04-14T15:12:47.007Z,94169.94
2023-04-14T15:15:14.893Z,94171.41
2023-04-14T15:17:42.888Z,94174.09
2023-04-14T15:20:14.340Z,94164.97
2023-04-14T15:22:42.257Z,94177.06
2023-04-14T15:25:11.218Z,94162.03
2023-04-14T15:27:39.194Z,94165.84
2023-04-14T15:30:10.047Z,94167.28
2023-04-14T15:32:38.060Z,94171.63
2023-04-14T15:35:06.848Z,94166.47
2023-04-14T15:37:35.150Z,94164.66
2023-04-14T15:40:04.123Z,94175.88
2023-04-14T15:42:32.099Z,94177.25
2023-04-14T15:44:59.977Z,94170.16
2023-04-14T15:47:29.163Z,94173.16
2023-04-14T15:50:09.494Z,94171.25
2023-04-14T15:52:39.144Z,94172.09
2023-04-14T15:55:08.362Z,94170.66
2023-04-14T15:57:36.288Z,94166.75
2023-04-14T16:00:29.186Z,94165.41
2023-04-14T16:02:58.677Z,94156.16
2023-04-14T16:05:26.574Z,94162.19
2023-04-14T16:07:54.371Z,94173.91
2023-04-14T16:10:22.499Z,94169.63
2023-04-14T16:12:50.627Z,94175.22
2023-04-14T16:15:18.564Z,94173.34
2023-04-14T16:17:46.573Z,94169.31
2023-04-14T16:20:17.843Z,94172.94
2023-04-14T16:22:46.448Z,94169.84
2023-04-14T16:25:14.439Z,94173.03
2023-04-14T16:27:42.770Z,94175.84
2023-04-14T16:30:11.735Z,94173.94
2023-04-14T16:32:39.841Z,94163.34
2023-04-14T16:35:09.376Z,94162.72
2023-04-14T16:37:38.829Z,94175.41
2023-04-14T16:40:07.842Z,94166.50
2023-04-14T16:42:37.581Z,94173.16
2023-04-14T16:45:06.779Z,94174.84
2023-04-14T16:47:34.703Z,94176.94
2023-04-14T16:50:02.827Z,94176.41
2023-04-14T16:52:31.251Z,94178.34
2023-04-14T16:55:01.030Z,94175.84
2023-04-14T16:57:29.043Z,94175.00
2023-04-14T16:59:56.862Z,94172.41
2023-04-14T17:02:24.937Z,94182.59
2023-04-14T17:04:52.977Z,94186.50
2023-04-14T17:07:20.906Z,94188.00
2023-04-14T17:09:49.015Z,94193.69
2023-04-14T17:12:18.406Z,94186.59
2023-04-14T17:14:46.272Z,94194.00
2023-04-14T17:17:14.112Z,94191.88
2023-04-14T17:19:43.129Z,94191.97
2023-04-14T17:22:11.011Z,94194.00
2023-04-14T17:24:38.854Z,94183.44
2023-04-14T17:27:06.804Z,94184.28
2023-04-14T17:29:36.137Z,94186.09
2023-04-14T17:32:04.473Z,94171.59
2023-04-14T17:34:32.520Z,94172.38
2023-04-14T17:37:00.587Z,94174.34
2023-04-14T17:39:28.579Z,94180.81
2023-04-14T17:41:58.152Z,94181.84
2023-04-14T17:44:31.903Z,94181.66
2023-04-14T17:47:02.996Z,94177.94
2023-04-14T17:49:31.520Z,94183.06
2023-04-14T17:51:59.610Z,94185.41
2023-04-14T17:54:27.628Z,94177.56
2023-04-14T17:56:56.729Z,94178.75
2023-04-14T17:59:24.669Z,94188.75
2023-04-14T18:01:52.750Z,94174.03
2023-04-14T18:04:22.186Z,94170.91
2023-04-14T18:06:50.229Z,94178.34
2023-04-14T18:09:18.144Z,94179.13
2023-04-14T18:11:46.393Z,94176.53
2023-04-14T18:14:14.389Z,94183.59
2023-04-14T18:16:42.463Z,94183.78
2023-04-14T18:19:15.729Z,94174.91
2023-04-14T18:21:45.356Z,94181.81
2023-04-14T18:26:45.025Z,94183.34
2023-04-14T18:29:13.435Z,94174.13
2023-04-14T18:31:42.633Z,94189.78
2023-04-14T18:34:12.637Z,94180.00
2023-04-14T18:36:40.680Z,94184.13
2023-04-14T18:39:10.565Z,94163.88
2023-04-14T18:41:38.804Z,94171.94
2023-04-14T18:44:07.553Z,94181.91
2023-04-14T18:46:35.989Z,94180.78
2023-04-14T18:49:06.760Z,94185.66
2023-04-14T18:51:40.339Z,94189.03
2023-04-14T18:54:08.615Z,94189.22
2023-04-14T18:56:38.264Z,94147.81
2023-04-14T18:59:07.649Z,94187.00
2023-04-14T19:01:36.058Z,94189.69
2023-04-14T19:04:05.992Z,94184.44
2023-04-14T19:06:34.065Z,94192.50
2023-04-14T19:09:04.269Z,94182.94
2023-04-14T19:11:36.055Z,94187.16
2023-04-14T19:14:06.718Z,94196.41
2023-04-14T19:16:34.857Z,94187.63
2023-04-14T19:19:10.646Z,94191.94
2023-04-14T19:21:40.640Z,94182.88
2023-04-14T19:24:08.611Z,94209.94
2023-04-14T19:26:40.590Z,94208.97
2023-04-14T19:29:09.900Z,94213.25
2023-04-14T19:31:39.469Z,94224.84
2023-04-14T19:34:07.437Z,94233.22
2023-04-14T19:36:35.358Z,94220.25
2023-04-14T19:39:03.959Z,94221.84
2023-04-14T19:41:33.785Z,94221.13
2023-04-14T19:44:04.025Z,94226.78
2023-04-14T19:46:35.645Z,94229.19
2023-04-14T19:49:04.042Z,94242.91
2023-04-14T19:51:32.947Z,94216.78
2023-04-14T19:54:01.465Z,94238.78
2023-04-14T19:56:29.868Z,94222.75
2023-04-14T19:58:58.342Z,94237.84
2023-04-14T20:01:26.696Z,94231.81
2023-04-14T20:04:04.445Z,94227.69
2023-04-14T20:06:37.585Z,94229.84
2023-04-14T20:09:05.589Z,94233.59
2023-04-14T20:11:33.346Z,94229.84
2023-04-14T20:14:01.191Z,94229.28
2023-04-14T20:16:31.068Z,94225.94
2023-04-14T20:19:00.856Z,94215.56
2023-04-14T20:21:29.600Z,94217.31
2023-04-14T20:23:57.660Z,94213.03
2023-04-14T20:26:25.468Z,94211.47
2023-04-14T20:28:53.565Z,94210.25
2023-04-14T20:31:22.278Z,94197.09
2023-04-14T20:33:51.046Z,94200.47
2023-04-14T20:36:20.584Z,94194.34
2023-04-14T20:38:48.629Z,94192.41
2023-04-14T20:41:16.531Z,94195.50
2023-04-14T20:43:44.605Z,94192.41
2023-04-14T20:46:13.593Z,94202.97
2023-04-14T20:48:42.081Z,94201.19
2023-04-14T20:51:09.876Z,94201.22
2023-04-14T20:53:39.066Z,94197.88
2023-04-14T20:56:07.235Z,94195.31
2023-04-14T20:58:35.188Z,94194.34
2023-04-14T21:01:03.457Z,94197.69
2023-04-14T21:03:34.366Z,94194.94
2023-04-14T21:06:02.570Z,94193.19
2023-04-14T21:08:30.669Z,94183.38
2023-04-14T21:11:15.163Z,94182.59
2023-04-14T21:15:24.833Z,94188.84
2023-04-14T21:16:48.148Z,94188.19
2023-04-14T21:19:19.423Z,94183.34
2023-04-14T21:21:47.725Z,94168.38
2023-04-14T21:24:15.653Z,94174.47
2023-04-14T21:26:44.965Z,94168.97
2023-04-14T21:29:12.812Z,94169.72
2023-04-14T21:31:41.010Z,94174.44
2023-04-14T21:34:08.949Z,94170.09
2023-04-14T21:36:37.328Z,94162.69
2023-04-14T21:39:05.466Z,94178.38
2023-04-14T21:41:33.422Z,94185.22
2023-04-14T21:44:03.468Z,94176.22
2023-04-14T21:46:31.547Z,94175.81
2023-04-14T21:48:59.477Z,94179.56
2023-04-14T21:51:27.552Z,94179.56
2023-04-14T21:53:55.737Z,94181.47
2023-04-14T21:56:23.862Z,94177.34
2023-04-14T21:58:51.864Z,94167.34
2023-04-14T22:01:23.465Z,94171.47
2023-04-14T22:04:22.156Z,94164.59
2023-04-14T22:06:57.404Z,94160.69
2023-04-14T22:09:25.307Z,94162.47
2023-04-14T22:11:55.251Z,94161.88
2023-04-14T22:14:23.550Z,94166.56
2023-04-14T22:16:53.338Z,94164.41
2023-04-14T22:19:21.305Z,94162.06
2023-04-14T22:21:49.778Z,94153.66
2023-04-14T22:24:17.817Z,94157.53
2023-04-14T22:26:45.860Z,94143.84
2023-04-14T22:29:14.105Z,94157.75
2023-04-14T22:31:42.227Z,94158.91
2023-04-14T22:34:11.895Z,94154.84
2023-04-14T22:36:39.958Z,94151.34
2023-04-14T22:39:08.301Z,94147.22
2023-04-14T22:41:36.084Z,94153.50
2023-04-14T22:44:05.899Z,94150.91
2023-04-14T22:46:34.432Z,94152.88
2023-04-14T22:49:03.352Z,94133.66
2023-04-14T22:51:32.959Z,94148.16
2023-04-14T22:54:00.754Z,94140.09
2023-04-14T22:56:29.326Z,94145.00
2023-04-14T22:58:58.392Z,94149.13
2023-04-14T23:01:48.310Z,94143.06
2023-04-14T23:04:25.203Z,94123.09
2023-04-14T23:06:54.628Z,94157.69
2023-04-14T23:09:22.464Z,94163.84
2023-04-14T23:11:50.268Z,94168.84
2023-04-14T23:14:18.132Z,94169.69
2023-04-14T23:16:45.905Z,94175.81
2023-04-14T23:19:13.656Z,94173.25
2023-04-14T23:21:42.058Z,94164.19
2023-04-14T23:24:11.197Z,94158.53
2023-04-14T23:26:38.973Z,94161.81
2023-04-14T23:29:06.759Z,94153.22
2023-04-14T23:31:49.804Z,94165.19
2023-04-14T23:34:17.643Z,94150.47
2023-04-14T23:36:47.255Z,94148.13
2023-04-14T23:39:16.409Z,94140.09
2023-04-14T23:41:44.164Z,94147.72
2023-04-14T23:44:11.940Z,94146.56
2023-04-14T23:46:40.667Z,94144.41
2023-04-14T23:49:23.174Z,94145.97
2023-04-14T23:51:52.740Z,94135.97
2023-04-14T23:54:21.829Z,94139.69
2023-04-14T23:56:49.627Z,94142.78
2023-04-14T23:59:17.675Z,94138.84
